sensor_id;sensor_type;location;lat;lon;timestamp;temperature;humidity
8010;DHT22;4050;51.160;6.938;2022-07-23T00:00:34;16.80;99.90
8010;DHT22;4050;51.160;6.938;2022-07-23T00:03:05;16.80;99.90
8010;DHT22;4050;51.160;6.938;2022-07-23T00:05:33;16.70;99.90
8010;DHT22;4050;51.160;6.938;2022-07-23T00:08:03;16.80;99.90
8010;DHT22;4050;51.160;6.938;2022-07-23T00:10:36;16.80;99.90
8010;DHT22;4050;51.160;6.938;2022-07-23T00:13:04;16.80;99.90
8010;DHT22;4050;51.160;6.938;2022-07-23T00:15:32;16.70;99.90
8010;DHT22;4050;51.160;6.938;2022-07-23T00:18:00;16.70;99.90
8010;DHT22;4050;51.160;6.938;2022-07-23T00:20:28;16.50;99.90
8010;DHT22;4050;51.160;6.938;2022-07-23T00:22:56;16.50;99.90
8010;DHT22;4050;51.160;6.938;2022-07-23T00:25:24;16.50;99.90
8010;DHT22;4050;51.160;6.938;2022-07-23T00:27:57;16.50;99.90
8010;DHT22;4050;51.160;6.938;2022-07-23T00:30:25;16.50;99.90
8010;DHT22;4050;51.160;6.938;2022-07-23T00:32:54;16.50;99.90
8010;DHT22;4050;51.160;6.938;2022-07-23T00:35:24;16.50;99.90
8010;DHT22;4050;51.160;6.938;2022-07-23T00:37:52;16.50;99.90
8010;DHT22;4050;51.160;6.938;2022-07-23T00:40:20;16.50;99.90
8010;DHT22;4050;51.160;6.938;2022-07-23T00:42:48;16.50;99.90
8010;DHT22;4050;51.160;6.938;2022-07-23T00:45:18;16.50;99.90
8010;DHT22;4050;51.160;6.938;2022-07-23T00:47:46;16.50;99.90
8010;DHT22;4050;51.160;6.938;2022-07-23T00:50:14;16.50;99.90
8010;DHT22;4050;51.160;6.938;2022-07-23T00:52:42;16.40;99.90
8010;DHT22;4050;51.160;6.938;2022-07-23T00:55:11;16.40;99.90
8010;DHT22;4050;51.160;6.938;2022-07-23T00:57:40;16.40;99.90
8010;DHT22;4050;51.160;6.938;2022-07-23T01:00:11;16.40;99.90
8010;DHT22;4050;51.160;6.938;2022-07-23T01:02:41;16.40;99.90
8010;DHT22;4050;51.160;6.938;2022-07-23T01:05:09;16.40;99.90
8010;DHT22;4050;51.160;6.938;2022-07-23T01:07:37;16.40;99.90
8010;DHT22;4050;51.160;6.938;2022-07-23T01:10:06;16.40;99.90
8010;DHT22;4050;51.160;6.938;2022-07-23T01:12:55;16.40;99.90
8010;DHT22;4050;51.160;6.938;2022-07-23T01:15:24;16.50;99.90
8010;DHT22;4050;51.160;6.938;2022-07-23T01:17:53;16.40;99.90
8010;DHT22;4050;51.160;6.938;2022-07-23T01:20:21;16.40;99.90
8010;DHT22;4050;51.160;6.938;2022-07-23T01:22:51;16.40;99.90
8010;DHT22;4050;51.160;6.938;2022-07-23T01:25:19;16.40;99.90
8010;DHT22;4050;51.160;6.938;2022-07-23T01:27:48;16.40;99.90
8010;DHT22;4050;51.160;6.938;2022-07-23T01:30:16;16.30;99.90
8010;DHT22;4050;51.160;6.938;2022-07-23T01:32:44;16.30;99.90
8010;DHT22;4050;51.160;6.938;2022-07-23T01:35:12;16.30;99.90
8010;DHT22;4050;51.160;6.938;2022-07-23T01:37:40;16.30;99.90
8010;DHT22;4050;51.160;6.938;2022-07-23T01:40:09;16.40;99.90
8010;DHT22;4050;51.160;6.938;2022-07-23T01:42:37;16.40;99.90
8010;DHT22;4050;51.160;6.938;2022-07-23T01:45:07;16.50;99.90
8010;DHT22;4050;51.160;6.938;2022-07-23T01:47:35;16.50;99.90
8010;DHT22;4050;51.160;6.938;2022-07-23T01:50:04;16.50;99.90
8010;DHT22;4050;51.160;6.938;2022-07-23T01:52:32;16.50;99.90
8010;DHT22;4050;51.160;6.938;2022-07-23T01:54:59;16.50;99.90
8010;DHT22;4050;51.160;6.938;2022-07-23T01:57:29;16.50;99.90
8010;DHT22;4050;51.160;6.938;2022-07-23T01:59:58;16.50;99.90
8010;DHT22;4050;51.160;6.938;2022-07-23T02:02:25;16.40;99.90
8010;DHT22;4050;51.160;6.938;2022-07-23T02:04:53;16.40;99.90
8010;DHT22;4050;51.160;6.938;2022-07-23T02:07:21;16.40;99.90
8010;DHT22;4050;51.160;6.938;2022-07-23T02:09:49;16.40;99.90
8010;DHT22;4050;51.160;6.938;2022-07-23T02:12:17;16.40;99.90
8010;DHT22;4050;51.160;6.938;2022-07-23T02:14:46;16.40;99.90
8010;DHT22;4050;51.160;6.938;2022-07-23T02:17:14;16.40;99.90
8010;DHT22;4050;51.160;6.938;2022-07-23T02:19:42;16.30;99.90
8010;DHT22;4050;51.160;6.938;2022-07-23T02:22:10;16.30;99.90
8010;DHT22;4050;51.160;6.938;2022-07-23T02:24:38;16.30;99.90
8010;DHT22;4050;51.160;6.938;2022-07-23T02:27:05;16.20;99.90
8010;DHT22;4050;51.160;6.938;2022-07-23T02:29:33;16.20;99.90
8010;DHT22;4050;51.160;6.938;2022-07-23T02:32:03;16.20;99.90
8010;DHT22;4050;51.160;6.938;2022-07-23T02:34:33;16.20;99.90
8010;DHT22;4050;51.160;6.938;2022-07-23T02:37:01;16.20;99.90
8010;DHT22;4050;51.160;6.938;2022-07-23T02:39:29;16.20;99.90
8010;DHT22;4050;51.160;6.938;2022-07-23T02:41:57;16.10;99.90
8010;DHT22;4050;51.160;6.938;2022-07-23T02:44:25;16.10;99.90
8010;DHT22;4050;51.160;6.938;2022-07-23T02:46:53;16.10;99.90
8010;DHT22;4050;51.160;6.938;2022-07-23T02:49:23;16.10;99.90
8010;DHT22;4050;51.160;6.938;2022-07-23T02:51:51;16.00;99.90
8010;DHT22;4050;51.160;6.938;2022-07-23T02:54:19;16.00;99.90
8010;DHT22;4050;51.160;6.938;2022-07-23T02:56:47;16.00;99.90
8010;DHT22;4050;51.160;6.938;2022-07-23T02:59:17;16.00;99.90
8010;DHT22;4050;51.160;6.938;2022-07-23T03:01:46;16.00;99.90
8010;DHT22;4050;51.160;6.938;2022-07-23T03:04:13;16.00;99.90
8010;DHT22;4050;51.160;6.938;2022-07-23T03:06:43;15.90;99.90
8010;DHT22;4050;51.160;6.938;2022-07-23T03:09:11;15.90;99.90
8010;DHT22;4050;51.160;6.938;2022-07-23T03:11:39;15.90;99.90
8010;DHT22;4050;51.160;6.938;2022-07-23T03:14:06;15.90;99.90
8010;DHT22;4050;51.160;6.938;2022-07-23T03:16:35;15.80;99.90
8010;DHT22;4050;51.160;6.938;2022-07-23T03:19:03;15.80;99.90
8010;DHT22;4050;51.160;6.938;2022-07-23T03:21:32;15.70;99.90
8010;DHT22;4050;51.160;6.938;2022-07-23T03:24:02;15.70;99.90
8010;DHT22;4050;51.160;6.938;2022-07-23T03:26:30;15.70;99.90
8010;DHT22;4050;51.160;6.938;2022-07-23T03:28:58;15.70;99.90
8010;DHT22;4050;51.160;6.938;2022-07-23T03:31:28;15.70;99.90
8010;DHT22;4050;51.160;6.938;2022-07-23T03:33:56;15.60;99.90
8010;DHT22;4050;51.160;6.938;2022-07-23T03:36:24;15.60;99.90
8010;DHT22;4050;51.160;6.938;2022-07-23T03:38:52;15.70;99.90
8010;DHT22;4050;51.160;6.938;2022-07-23T03:41:23;15.60;99.90
8010;DHT22;4050;51.160;6.938;2022-07-23T03:43:50;15.60;99.90
8010;DHT22;4050;51.160;6.938;2022-07-23T03:46:18;15.60;99.90
8010;DHT22;4050;51.160;6.938;2022-07-23T03:48:46;15.60;99.90
8010;DHT22;4050;51.160;6.938;2022-07-23T03:51:14;15.60;99.90
8010;DHT22;4050;51.160;6.938;2022-07-23T03:53:42;15.60;99.90
8010;DHT22;4050;51.160;6.938;2022-07-23T03:56:10;15.60;99.90
8010;DHT22;4050;51.160;6.938;2022-07-23T03:58:39;15.70;99.90
8010;DHT22;4050;51.160;6.938;2022-07-23T04:01:07;15.70;99.90
8010;DHT22;4050;51.160;6.938;2022-07-23T04:03:35;15.70;99.90
8010;DHT22;4050;51.160;6.938;2022-07-23T04:06:03;15.60;99.90
8010;DHT22;4050;51.160;6.938;2022-07-23T04:08:30;15.70;99.90
8010;DHT22;4050;51.160;6.938;2022-07-23T04:10:58;15.70;99.90
8010;DHT22;4050;51.160;6.938;2022-07-23T04:13:26;15.70;99.90
8010;DHT22;4050;51.160;6.938;2022-07-23T04:15:56;15.70;99.90
8010;DHT22;4050;51.160;6.938;2022-07-23T04:18:24;15.80;99.90
8010;DHT22;4050;51.160;6.938;2022-07-23T04:20:52;15.90;99.90
8010;DHT22;4050;51.160;6.938;2022-07-23T04:23:20;16.10;99.90
8010;DHT22;4050;51.160;6.938;2022-07-23T04:25:48;16.40;99.90
8010;DHT22;4050;51.160;6.938;2022-07-23T04:28:16;16.60;99.90
8010;DHT22;4050;51.160;6.938;2022-07-23T04:30:44;16.80;99.90
8010;DHT22;4050;51.160;6.938;2022-07-23T04:33:13;17.00;99.90
8010;DHT22;4050;51.160;6.938;2022-07-23T04:35:41;17.20;99.90
8010;DHT22;4050;51.160;6.938;2022-07-23T04:38:09;17.40;99.90
8010;DHT22;4050;51.160;6.938;2022-07-23T04:40:37;17.70;99.90
8010;DHT22;4050;51.160;6.938;2022-07-23T04:43:05;17.90;99.90
8010;DHT22;4050;51.160;6.938;2022-07-23T04:45:33;18.10;99.90
8010;DHT22;4050;51.160;6.938;2022-07-23T04:48:00;18.30;99.90
8010;DHT22;4050;51.160;6.938;2022-07-23T04:50:30;18.60;99.90
8010;DHT22;4050;51.160;6.938;2022-07-23T04:52:57;18.80;99.90
8010;DHT22;4050;51.160;6.938;2022-07-23T04:55:26;18.90;99.90
8010;DHT22;4050;51.160;6.938;2022-07-23T04:57:54;19.10;99.90
8010;DHT22;4050;51.160;6.938;2022-07-23T05:00:22;19.20;99.90
8010;DHT22;4050;51.160;6.938;2022-07-23T05:02:50;19.40;99.90
8010;DHT22;4050;51.160;6.938;2022-07-23T05:05:18;19.50;99.90
8010;DHT22;4050;51.160;6.938;2022-07-23T05:07:47;19.70;99.90
8010;DHT22;4050;51.160;6.938;2022-07-23T05:10:15;19.90;99.90
8010;DHT22;4050;51.160;6.938;2022-07-23T05:12:42;20.10;99.90
8010;DHT22;4050;51.160;6.938;2022-07-23T05:15:10;20.40;99.90
8010;DHT22;4050;51.160;6.938;2022-07-23T05:17:38;20.50;99.90
8010;DHT22;4050;51.160;6.938;2022-07-23T05:20:07;20.60;99.90
8010;DHT22;4050;51.160;6.938;2022-07-23T05:22:35;20.80;99.90
8010;DHT22;4050;51.160;6.938;2022-07-23T05:25:05;21.00;99.90
8010;DHT22;4050;51.160;6.938;2022-07-23T05:27:33;21.20;99.90
8010;DHT22;4050;51.160;6.938;2022-07-23T05:30:01;21.30;99.90
8010;DHT22;4050;51.160;6.938;2022-07-23T05:32:31;21.50;99.90
8010;DHT22;4050;51.160;6.938;2022-07-23T05:34:59;21.60;99.90
8010;DHT22;4050;51.160;6.938;2022-07-23T05:37:26;21.60;99.90
8010;DHT22;4050;51.160;6.938;2022-07-23T05:39:54;21.60;99.90
8010;DHT22;4050;51.160;6.938;2022-07-23T05:42:24;21.80;99.90
8010;DHT22;4050;51.160;6.938;2022-07-23T05:44:52;21.90;99.90
8010;DHT22;4050;51.160;6.938;2022-07-23T05:47:19;22.00;99.90
8010;DHT22;4050;51.160;6.938;2022-07-23T05:49:47;22.10;99.90
8010;DHT22;4050;51.160;6.938;2022-07-23T05:52:15;22.30;99.90
8010;DHT22;4050;51.160;6.938;2022-07-23T05:54:43;22.40;99.90
8010;DHT22;4050;51.160;6.938;2022-07-23T05:57:11;22.50;99.90
8010;DHT22;4050;51.160;6.938;2022-07-23T05:59:40;22.70;99.90
8010;DHT22;4050;51.160;6.938;2022-07-23T06:02:08;22.80;99.90
8010;DHT22;4050;51.160;6.938;2022-07-23T06:04:36;23.00;99.90
8010;DHT22;4050;51.160;6.938;2022-07-23T06:07:04;23.20;99.90
8010;DHT22;4050;51.160;6.938;2022-07-23T06:09:32;23.40;99.90
8010;DHT22;4050;51.160;6.938;2022-07-23T06:12:00;23.40;99.90
8010;DHT22;4050;51.160;6.938;2022-07-23T06:14:27;23.70;99.90
8010;DHT22;4050;51.160;6.938;2022-07-23T06:16:57;23.80;99.90
8010;DHT22;4050;51.160;6.938;2022-07-23T06:19:25;24.00;99.90
8010;DHT22;4050;51.160;6.938;2022-07-23T06:21:53;24.50;99.90
8010;DHT22;4050;51.160;6.938;2022-07-23T06:24:21;25.20;99.90
8010;DHT22;4050;51.160;6.938;2022-07-23T06:26:49;25.80;99.90
8010;DHT22;4050;51.160;6.938;2022-07-23T06:29:17;26.60;99.90
8010;DHT22;4050;51.160;6.938;2022-07-23T06:31:45;27.20;99.90
8010;DHT22;4050;51.160;6.938;2022-07-23T06:34:14;27.90;99.90
8010;DHT22;4050;51.160;6.938;2022-07-23T06:36:42;28.60;99.90
8010;DHT22;4050;51.160;6.938;2022-07-23T06:39:11;29.20;99.90
8010;DHT22;4050;51.160;6.938;2022-07-23T06:41:39;29.70;99.90
8010;DHT22;4050;51.160;6.938;2022-07-23T06:44:07;30.40;99.90
8010;DHT22;4050;51.160;6.938;2022-07-23T06:46:35;31.00;99.90
8010;DHT22;4050;51.160;6.938;2022-07-23T06:49:03;31.60;97.70
8010;DHT22;4050;51.160;6.938;2022-07-23T06:51:34;32.40;95.30
8010;DHT22;4050;51.160;6.938;2022-07-23T06:54:02;33.10;90.30
8010;DHT22;4050;51.160;6.938;2022-07-23T06:56:30;33.40;87.50
8010;DHT22;4050;51.160;6.938;2022-07-23T06:58:58;33.90;86.40
8010;DHT22;4050;51.160;6.938;2022-07-23T07:01:27;34.50;79.20
8010;DHT22;4050;51.160;6.938;2022-07-23T07:03:55;35.00;80.30
8010;DHT22;4050;51.160;6.938;2022-07-23T07:06:22;35.50;71.70
8010;DHT22;4050;51.160;6.938;2022-07-23T07:08:52;35.90;64.80
8010;DHT22;4050;51.160;6.938;2022-07-23T07:11:20;36.30;63.90
8010;DHT22;4050;51.160;6.938;2022-07-23T07:13:48;36.50;58.50
8010;DHT22;4050;51.160;6.938;2022-07-23T07:16:16;36.80;55.90
8010;DHT22;4050;51.160;6.938;2022-07-23T07:18:43;37.00;54.70
8010;DHT22;4050;51.160;6.938;2022-07-23T07:21:11;37.30;51.50
8010;DHT22;4050;51.160;6.938;2022-07-23T07:23:39;37.50;48.30
8010;DHT22;4050;51.160;6.938;2022-07-23T07:26:08;37.80;46.30
8010;DHT22;4050;51.160;6.938;2022-07-23T07:28:36;38.00;43.50
8010;DHT22;4050;51.160;6.938;2022-07-23T07:31:04;38.30;41.60
8010;DHT22;4050;51.160;6.938;2022-07-23T07:33:32;38.40;40.00
8010;DHT22;4050;51.160;6.938;2022-07-23T07:36:00;38.20;36.80
8010;DHT22;4050;51.160;6.938;2022-07-23T07:38:28;38.20;36.90
8010;DHT22;4050;51.160;6.938;2022-07-23T07:40:56;38.30;36.60
8010;DHT22;4050;51.160;6.938;2022-07-23T07:43:25;38.40;36.00
8010;DHT22;4050;51.160;6.938;2022-07-23T07:45:55;38.80;35.00
8010;DHT22;4050;51.160;6.938;2022-07-23T07:48:23;39.20;33.80
8010;DHT22;4050;51.160;6.938;2022-07-23T07:50:54;39.20;32.70
8010;DHT22;4050;51.160;6.938;2022-07-23T07:53:26;39.20;32.50
8010;DHT22;4050;51.160;6.938;2022-07-23T07:55:54;39.30;32.10
8010;DHT22;4050;51.160;6.938;2022-07-23T07:58:26;39.10;31.20
8010;DHT22;4050;51.160;6.938;2022-07-23T08:00:56;38.70;30.70
8010;DHT22;4050;51.160;6.938;2022-07-23T08:03:24;38.30;31.10
8010;DHT22;4050;51.160;6.938;2022-07-23T08:05:52;38.00;31.30
8010;DHT22;4050;51.160;6.938;2022-07-23T08:08:19;37.40;32.00
8010;DHT22;4050;51.160;6.938;2022-07-23T08:10:47;37.30;32.90
8010;DHT22;4050;51.160;6.938;2022-07-23T08:13:16;37.10;32.70
8010;DHT22;4050;51.160;6.938;2022-07-23T08:15:45;36.40;32.20
8010;DHT22;4050;51.160;6.938;2022-07-23T08:18:14;35.70;34.10
8010;DHT22;4050;51.160;6.938;2022-07-23T08:20:42;35.50;34.90
8010;DHT22;4050;51.160;6.938;2022-07-23T08:23:10;35.30;34.80
8010;DHT22;4050;51.160;6.938;2022-07-23T08:25:40;34.90;34.90
8010;DHT22;4050;51.160;6.938;2022-07-23T08:28:10;34.70;35.70
8010;DHT22;4050;51.160;6.938;2022-07-23T08:30:40;35.00;36.30
8010;DHT22;4050;51.160;6.938;2022-07-23T08:33:11;35.10;35.80
8010;DHT22;4050;51.160;6.938;2022-07-23T08:35:58;35.50;36.00
8010;DHT22;4050;51.160;6.938;2022-07-23T08:38:25;36.20;35.40
8010;DHT22;4050;51.160;6.938;2022-07-23T08:40:56;36.80;34.00
8010;DHT22;4050;51.160;6.938;2022-07-23T08:43:30;37.50;32.90
8010;DHT22;4050;51.160;6.938;2022-07-23T08:46:00;38.20;32.20
8010;DHT22;4050;51.160;6.938;2022-07-23T08:48:31;39.00;30.60
8010;DHT22;4050;51.160;6.938;2022-07-23T08:51:02;39.00;29.80
8010;DHT22;4050;51.160;6.938;2022-07-23T08:53:31;38.30;29.60
8010;DHT22;4050;51.160;6.938;2022-07-23T08:56:05;37.90;30.70
8010;DHT22;4050;51.160;6.938;2022-07-23T08:58:36;37.90;31.10
8010;DHT22;4050;51.160;6.938;2022-07-23T09:01:04;37.90;30.90
8010;DHT22;4050;51.160;6.938;2022-07-23T09:03:35;37.70;30.50
8010;DHT22;4050;51.160;6.938;2022-07-23T09:06:04;37.20;30.50
8010;DHT22;4050;51.160;6.938;2022-07-23T09:08:36;36.50;31.10
8010;DHT22;4050;51.160;6.938;2022-07-23T09:11:07;36.40;32.50
8010;DHT22;4050;51.160;6.938;2022-07-23T09:13:38;36.70;32.50
8010;DHT22;4050;51.160;6.938;2022-07-23T09:16:09;37.20;31.90
8010;DHT22;4050;51.160;6.938;2022-07-23T09:18:43;37.60;30.60
8010;DHT22;4050;51.160;6.938;2022-07-23T09:21:17;38.00;30.30
8010;DHT22;4050;51.160;6.938;2022-07-23T09:23:48;38.50;30.00
8010;DHT22;4050;51.160;6.938;2022-07-23T09:26:25;39.20;29.40
8010;DHT22;4050;51.160;6.938;2022-07-23T09:28:55;39.60;28.70
8010;DHT22;4050;51.160;6.938;2022-07-23T09:31:25;40.20;28.80
8010;DHT22;4050;51.160;6.938;2022-07-23T09:34:07;40.90;28.40
8010;DHT22;4050;51.160;6.938;2022-07-23T09:36:36;41.40;27.60
8010;DHT22;4050;51.160;6.938;2022-07-23T09:39:05;41.60;27.10
8010;DHT22;4050;51.160;6.938;2022-07-23T09:41:38;41.90;27.00
8010;DHT22;4050;51.160;6.938;2022-07-23T09:44:08;42.20;26.90
8010;DHT22;4050;51.160;6.938;2022-07-23T09:46:37;42.60;26.10
8010;DHT22;4050;51.160;6.938;2022-07-23T09:49:13;42.90;25.60
8010;DHT22;4050;51.160;6.938;2022-07-23T09:51:47;42.60;25.80
8010;DHT22;4050;51.160;6.938;2022-07-23T09:54:27;42.80;26.30
8010;DHT22;4050;51.160;6.938;2022-07-23T09:56:58;43.10;25.80
8010;DHT22;4050;51.160;6.938;2022-07-23T09:59:27;43.50;25.30
8010;DHT22;4050;51.160;6.938;2022-07-23T10:01:56;43.10;24.60
8010;DHT22;4050;51.160;6.938;2022-07-23T10:04:29;42.80;25.50
8010;DHT22;4050;51.160;6.938;2022-07-23T10:06:59;43.00;25.90
8010;DHT22;4050;51.160;6.938;2022-07-23T10:09:29;43.60;25.10
8010;DHT22;4050;51.160;6.938;2022-07-23T10:12:00;43.80;24.50
8010;DHT22;4050;51.160;6.938;2022-07-23T10:14:45;43.80;24.30
8010;DHT22;4050;51.160;6.938;2022-07-23T10:17:12;44.20;24.30
8010;DHT22;4050;51.160;6.938;2022-07-23T10:19:41;44.50;24.00
8010;DHT22;4050;51.160;6.938;2022-07-23T10:22:14;45.10;23.40
8010;DHT22;4050;51.160;6.938;2022-07-23T10:24:52;45.50;22.90
8010;DHT22;4050;51.160;6.938;2022-07-23T10:27:37;45.80;22.70
8010;DHT22;4050;51.160;6.938;2022-07-23T10:30:11;46.40;22.50
8010;DHT22;4050;51.160;6.938;2022-07-23T10:32:45;46.50;21.90
8010;DHT22;4050;51.160;6.938;2022-07-23T10:35:26;46.40;22.00
8010;DHT22;4050;51.160;6.938;2022-07-23T10:38:02;46.40;22.40
8010;DHT22;4050;51.160;6.938;2022-07-23T10:40:36;46.60;21.80
8010;DHT22;4050;51.160;6.938;2022-07-23T10:43:13;46.30;21.70
8010;DHT22;4050;51.160;6.938;2022-07-23T10:45:47;46.10;21.70
8010;DHT22;4050;51.160;6.938;2022-07-23T10:48:17;45.80;21.90
8010;DHT22;4050;51.160;6.938;2022-07-23T10:51:08;45.60;21.70
8010;DHT22;4050;51.160;6.938;2022-07-23T10:53:56;44.40;21.80
8010;DHT22;4050;51.160;6.938;2022-07-23T10:56:50;43.60;22.80
8010;DHT22;4050;51.160;6.938;2022-07-23T10:59:18;43.20;23.50
8010;DHT22;4050;51.160;6.938;2022-07-23T11:01:46;42.80;23.70
8010;DHT22;4050;51.160;6.938;2022-07-23T11:04:15;42.60;24.10
8010;DHT22;4050;51.160;6.938;2022-07-23T11:07:09;42.50;23.50
8010;DHT22;4050;51.160;6.938;2022-07-23T11:09:40;42.10;23.30
8010;DHT22;4050;51.160;6.938;2022-07-23T11:12:34;41.40;24.00
8010;DHT22;4050;51.160;6.938;2022-07-23T11:15:07;40.70;24.50
8010;DHT22;4050;51.160;6.938;2022-07-23T11:17:37;39.70;25.20
8010;DHT22;4050;51.160;6.938;2022-07-23T11:20:20;38.80;26.00
8010;DHT22;4050;51.160;6.938;2022-07-23T11:22:52;37.90;26.70
8010;DHT22;4050;51.160;6.938;2022-07-23T11:25:34;37.00;27.60
8010;DHT22;4050;51.160;6.938;2022-07-23T11:28:10;36.10;28.50
8010;DHT22;4050;51.160;6.938;2022-07-23T11:30:40;35.30;29.20
8010;DHT22;4050;51.160;6.938;2022-07-23T11:33:21;34.70;29.80
8010;DHT22;4050;51.160;6.938;2022-07-23T11:36:01;34.20;30.50
8010;DHT22;4050;51.160;6.938;2022-07-23T11:38:32;33.60;31.20
8010;DHT22;4050;51.160;6.938;2022-07-23T11:41:00;33.20;32.00
8010;DHT22;4050;51.160;6.938;2022-07-23T11:43:28;32.90;32.50
8010;DHT22;4050;51.160;6.938;2022-07-23T11:45:59;32.60;32.00
8010;DHT22;4050;51.160;6.938;2022-07-23T11:48:28;32.10;32.80
8010;DHT22;4050;51.160;6.938;2022-07-23T11:51:06;31.90;33.90
8010;DHT22;4050;51.160;6.938;2022-07-23T11:53:35;31.80;34.30
8010;DHT22;4050;51.160;6.938;2022-07-23T11:56:04;31.70;34.90
8010;DHT22;4050;51.160;6.938;2022-07-23T11:58:33;31.40;35.30
8010;DHT22;4050;51.160;6.938;2022-07-23T12:01:01;31.30;35.40
8010;DHT22;4050;51.160;6.938;2022-07-23T12:03:29;31.00;34.90
8010;DHT22;4050;51.160;6.938;2022-07-23T12:05:58;30.60;35.10
8010;DHT22;4050;51.160;6.938;2022-07-23T12:08:27;30.30;36.40
8010;DHT22;4050;51.160;6.938;2022-07-23T12:10:57;30.20;37.30
8010;DHT22;4050;51.160;6.938;2022-07-23T12:13:25;30.00;37.30
8010;DHT22;4050;51.160;6.938;2022-07-23T12:15:57;30.00;37.60
8010;DHT22;4050;51.160;6.938;2022-07-23T12:18:25;29.90;37.80
8010;DHT22;4050;51.160;6.938;2022-07-23T12:20:57;30.00;37.70
8010;DHT22;4050;51.160;6.938;2022-07-23T12:23:26;29.90;37.70
8010;DHT22;4050;51.160;6.938;2022-07-23T12:25:54;29.80;37.70
8010;DHT22;4050;51.160;6.938;2022-07-23T12:28:28;29.80;37.60
8010;DHT22;4050;51.160;6.938;2022-07-23T12:30:58;29.80;38.10
8010;DHT22;4050;51.160;6.938;2022-07-23T12:33:28;29.80;38.20
8010;DHT22;4050;51.160;6.938;2022-07-23T12:36:00;29.80;38.50
8010;DHT22;4050;51.160;6.938;2022-07-23T12:38:37;29.90;38.50
8010;DHT22;4050;51.160;6.938;2022-07-23T12:41:05;30.00;37.90
8010;DHT22;4050;51.160;6.938;2022-07-23T12:43:36;29.90;37.50
8010;DHT22;4050;51.160;6.938;2022-07-23T12:46:06;29.80;37.40
8010;DHT22;4050;51.160;6.938;2022-07-23T12:48:35;29.80;37.80
8010;DHT22;4050;51.160;6.938;2022-07-23T12:51:05;29.80;37.90
8010;DHT22;4050;51.160;6.938;2022-07-23T12:53:38;29.80;38.00
8010;DHT22;4050;51.160;6.938;2022-07-23T12:56:11;29.80;38.00
8010;DHT22;4050;51.160;6.938;2022-07-23T12:58:45;29.90;37.70
8010;DHT22;4050;51.160;6.938;2022-07-23T13:01:25;29.90;37.90
8010;DHT22;4050;51.160;6.938;2022-07-23T13:03:59;30.00;38.00
8010;DHT22;4050;51.160;6.938;2022-07-23T13:06:29;29.90;37.70
8010;DHT22;4050;51.160;6.938;2022-07-23T13:08:58;29.80;37.80
8010;DHT22;4050;51.160;6.938;2022-07-23T13:11:28;29.80;37.90
8010;DHT22;4050;51.160;6.938;2022-07-23T13:13:58;29.80;37.60
8010;DHT22;4050;51.160;6.938;2022-07-23T13:16:34;29.70;37.80
8010;DHT22;4050;51.160;6.938;2022-07-23T13:19:04;29.70;37.90
8010;DHT22;4050;51.160;6.938;2022-07-23T13:21:39;29.50;37.90
8010;DHT22;4050;51.160;6.938;2022-07-23T13:24:08;29.40;37.40
8010;DHT22;4050;51.160;6.938;2022-07-23T13:26:37;29.20;37.90
8010;DHT22;4050;51.160;6.938;2022-07-23T13:29:06;29.10;37.80
8010;DHT22;4050;51.160;6.938;2022-07-23T13:31:37;28.70;37.90
8010;DHT22;4050;51.160;6.938;2022-07-23T13:34:05;28.30;38.00
8010;DHT22;4050;51.160;6.938;2022-07-23T13:36:34;28.00;39.10
8010;DHT22;4050;51.160;6.938;2022-07-23T13:39:02;27.80;39.90
8010;DHT22;4050;51.160;6.938;2022-07-23T13:41:32;27.70;40.30
8010;DHT22;4050;51.160;6.938;2022-07-23T13:44:02;27.50;40.40
8010;DHT22;4050;51.160;6.938;2022-07-23T13:46:55;27.50;40.60
8010;DHT22;4050;51.160;6.938;2022-07-23T13:49:24;27.50;41.20
8010;DHT22;4050;51.160;6.938;2022-07-23T13:51:52;27.50;41.10
8010;DHT22;4050;51.160;6.938;2022-07-23T13:54:23;27.70;41.50
8010;DHT22;4050;51.160;6.938;2022-07-23T13:56:54;28.00;41.70
8010;DHT22;4050;51.160;6.938;2022-07-23T13:59:25;28.20;41.20
8010;DHT22;4050;51.160;6.938;2022-07-23T14:01:58;28.30;40.40
8010;DHT22;4050;51.160;6.938;2022-07-23T14:04:46;28.20;40.70
8010;DHT22;4050;51.160;6.938;2022-07-23T14:07:14;28.30;41.00
8010;DHT22;4050;51.160;6.938;2022-07-23T14:09:42;28.40;40.90
8010;DHT22;4050;51.160;6.938;2022-07-23T14:12:10;28.50;40.50
8010;DHT22;4050;51.160;6.938;2022-07-23T14:14:43;28.50;40.40
8010;DHT22;4050;51.160;6.938;2022-07-23T14:17:12;28.60;40.10
8010;DHT22;4050;51.160;6.938;2022-07-23T14:19:41;28.60;39.90
8010;DHT22;4050;51.160;6.938;2022-07-23T14:22:10;28.70;39.70
8010;DHT22;4050;51.160;6.938;2022-07-23T14:24:39;28.80;39.70
8010;DHT22;4050;51.160;6.938;2022-07-23T14:27:07;28.90;39.60
8010;DHT22;4050;51.160;6.938;2022-07-23T14:29:35;29.00;39.50
8010;DHT22;4050;51.160;6.938;2022-07-23T14:32:03;29.10;38.90
8010;DHT22;4050;51.160;6.938;2022-07-23T14:34:34;29.00;38.00
8010;DHT22;4050;51.160;6.938;2022-07-23T14:37:04;28.80;38.20
8010;DHT22;4050;51.160;6.938;2022-07-23T14:39:32;28.70;39.00
8010;DHT22;4050;51.160;6.938;2022-07-23T14:42:01;28.70;39.10
8010;DHT22;4050;51.160;6.938;2022-07-23T18:46:49;25.40;74.10
8010;DHT22;4050;51.160;6.938;2022-07-23T18:49:17;25.30;51.60
8010;DHT22;4050;51.160;6.938;2022-07-23T18:51:47;25.30;46.00
8010;DHT22;4050;51.160;6.938;2022-07-23T18:54:14;25.10;46.20
8010;DHT22;4050;51.160;6.938;2022-07-23T18:56:43;25.00;46.40
8010;DHT22;4050;51.160;6.938;2022-07-23T18:59:12;24.90;46.60
8010;DHT22;4050;51.160;6.938;2022-07-23T19:01:49;24.80;46.70
8010;DHT22;4050;51.160;6.938;2022-07-23T19:04:21;24.70;46.90
8010;DHT22;4050;51.160;6.938;2022-07-23T19:06:51;24.60;47.00
8010;DHT22;4050;51.160;6.938;2022-07-23T19:09:19;24.50;47.20
8010;DHT22;4050;51.160;6.938;2022-07-23T19:11:47;24.40;47.40
8010;DHT22;4050;51.160;6.938;2022-07-23T19:14:18;24.30;47.70
8010;DHT22;4050;51.160;6.938;2022-07-23T19:16:46;24.20;47.90
8010;DHT22;4050;51.160;6.938;2022-07-23T19:19:14;24.10;48.10
8010;DHT22;4050;51.160;6.938;2022-07-23T19:21:43;24.00;48.40
8010;DHT22;4050;51.160;6.938;2022-07-23T19:24:11;23.90;48.70
8010;DHT22;4050;51.160;6.938;2022-07-23T19:26:39;23.80;48.90
8010;DHT22;4050;51.160;6.938;2022-07-23T19:29:10;23.80;49.30
8010;DHT22;4050;51.160;6.938;2022-07-23T19:31:45;23.70;49.70
8010;DHT22;4050;51.160;6.938;2022-07-23T19:34:14;23.60;50.00
8010;DHT22;4050;51.160;6.938;2022-07-23T19:36:46;23.40;50.50
8010;DHT22;4050;51.160;6.938;2022-07-23T19:39:18;23.40;51.10
8010;DHT22;4050;51.160;6.938;2022-07-23T19:41:48;23.30;51.50
8010;DHT22;4050;51.160;6.938;2022-07-23T19:44:16;23.10;51.80
8010;DHT22;4050;51.160;6.938;2022-07-23T19:46:46;23.10;52.30
8010;DHT22;4050;51.160;6.938;2022-07-23T19:49:14;23.00;52.60
8010;DHT22;4050;51.160;6.938;2022-07-23T19:51:42;22.90;53.00
8010;DHT22;4050;51.160;6.938;2022-07-23T19:54:09;22.80;53.50
8010;DHT22;4050;51.160;6.938;2022-07-23T19:56:37;22.70;53.90
8010;DHT22;4050;51.160;6.938;2022-07-23T19:59:08;22.60;54.50
8010;DHT22;4050;51.160;6.938;2022-07-23T20:01:37;22.50;55.50
8010;DHT22;4050;51.160;6.938;2022-07-23T20:04:06;22.40;55.50
8010;DHT22;4050;51.160;6.938;2022-07-23T20:06:34;22.30;55.80
8010;DHT22;4050;51.160;6.938;2022-07-23T20:09:03;22.30;56.30
8010;DHT22;4050;51.160;6.938;2022-07-23T20:11:32;22.20;56.80
8010;DHT22;4050;51.160;6.938;2022-07-23T20:14:00;22.10;57.30
8010;DHT22;4050;51.160;6.938;2022-07-23T20:16:29;22.00;57.90
8010;DHT22;4050;51.160;6.938;2022-07-23T20:18:57;21.90;58.50
8010;DHT22;4050;51.160;6.938;2022-07-23T20:21:30;21.90;59.30